sensor_id;sensor_type;location;lat;lon;timestamp;temperature;humidity
8858;DHT22;4465;50.904;4.696;2023-08-17T00:01:37;19.80;99.90
8858;DHT22;4465;50.904;4.696;2023-08-17T00:04:07;19.80;99.90
8858;DHT22;4465;50.904;4.696;2023-08-17T00:06:33;19.70;99.90
8858;DHT22;4465;50.904;4.696;2023-08-17T00:09:02;19.70;99.90
8858;DHT22;4465;50.904;4.696;2023-08-17T00:11:29;19.60;99.90
8858;DHT22;4465;50.904;4.696;2023-08-17T00:13:57;19.60;99.90
8858;DHT22;4465;50.904;4.696;2023-08-17T00:16:23;19.60;99.90
8858;DHT22;4465;50.904;4.696;2023-08-17T00:18:52;19.50;99.90
8858;DHT22;4465;50.904;4.696;2023-08-17T00:21:18;19.50;99.90
8858;DHT22;4465;50.904;4.696;2023-08-17T00:23:47;19.40;99.90
8858;DHT22;4465;50.904;4.696;2023-08-17T00:26:16;19.40;99.90
8858;DHT22;4465;50.904;4.696;2023-08-17T00:28:42;19.40;99.90
8858;DHT22;4465;50.904;4.696;2023-08-17T00:31:10;19.30;99.90
8858;DHT22;4465;50.904;4.696;2023-08-17T00:33:37;19.30;99.90
8858;DHT22;4465;50.904;4.696;2023-08-17T00:36:06;19.30;99.90
8858;DHT22;4465;50.904;4.696;2023-08-17T00:38:32;19.30;99.90
8858;DHT22;4465;50.904;4.696;2023-08-17T00:41:04;19.30;99.90
8858;DHT22;4465;50.904;4.696;2023-08-17T00:43:30;19.20;99.90
8858;DHT22;4465;50.904;4.696;2023-08-17T00:45:59;19.20;99.90
8858;DHT22;4465;50.904;4.696;2023-08-17T00:48:27;19.20;99.90
8858;DHT22;4465;50.904;4.696;2023-08-17T00:50:55;19.20;99.90
8858;DHT22;4465;50.904;4.696;2023-08-17T00:53:22;19.10;99.90
8858;DHT22;4465;50.904;4.696;2023-08-17T00:55:48;19.10;99.90
8858;DHT22;4465;50.904;4.696;2023-08-17T00:58:15;19.10;99.90
8858;DHT22;4465;50.904;4.696;2023-08-17T01:00:44;19.10;99.90
8858;DHT22;4465;50.904;4.696;2023-08-17T01:03:10;19.00;99.90
8858;DHT22;4465;50.904;4.696;2023-08-17T01:05:38;19.00;99.90
8858;DHT22;4465;50.904;4.696;2023-08-17T01:08:07;19.10;99.90
8858;DHT22;4465;50.904;4.696;2023-08-17T01:10:59;19.10;99.90
8858;DHT22;4465;50.904;4.696;2023-08-17T01:16:31;19.10;99.90
8858;DHT22;4465;50.904;4.696;2023-08-17T01:19:01;19.10;99.90
8858;DHT22;4465;50.904;4.696;2023-08-17T01:21:41;19.10;99.90
8858;DHT22;4465;50.904;4.696;2023-08-17T01:24:08;19.10;99.90
8858;DHT22;4465;50.904;4.696;2023-08-17T01:26:34;19.10;99.90
8858;DHT22;4465;50.904;4.696;2023-08-17T01:29:03;19.10;99.90
8858;DHT22;4465;50.904;4.696;2023-08-17T01:31:32;19.10;99.90
8858;DHT22;4465;50.904;4.696;2023-08-17T01:34:05;19.10;99.90
8858;DHT22;4465;50.904;4.696;2023-08-17T01:36:39;19.10;99.90
8858;DHT22;4465;50.904;4.696;2023-08-17T01:39:10;19.10;99.90
8858;DHT22;4465;50.904;4.696;2023-08-17T01:41:37;19.10;99.90
8858;DHT22;4465;50.904;4.696;2023-08-17T01:44:04;19.10;99.90
8858;DHT22;4465;50.904;4.696;2023-08-17T01:46:32;19.00;99.90
8858;DHT22;4465;50.904;4.696;2023-08-17T01:48:58;19.00;99.90
8858;DHT22;4465;50.904;4.696;2023-08-17T01:51:27;19.10;99.90
8858;DHT22;4465;50.904;4.696;2023-08-17T01:53:55;19.00;99.90
8858;DHT22;4465;50.904;4.696;2023-08-17T01:56:21;19.00;99.90
8858;DHT22;4465;50.904;4.696;2023-08-17T01:58:47;19.00;99.90
8858;DHT22;4465;50.904;4.696;2023-08-17T02:01:13;19.00;99.90
8858;DHT22;4465;50.904;4.696;2023-08-17T02:03:39;19.00;99.90
8858;DHT22;4465;50.904;4.696;2023-08-17T02:06:05;19.10;99.90
8858;DHT22;4465;50.904;4.696;2023-08-17T02:08:33;19.00;99.90
8858;DHT22;4465;50.904;4.696;2023-08-17T02:10:59;19.00;99.90
8858;DHT22;4465;50.904;4.696;2023-08-17T02:13:25;19.00;99.90
8858;DHT22;4465;50.904;4.696;2023-08-17T02:15:53;19.00;99.90
8858;DHT22;4465;50.904;4.696;2023-08-17T02:18:19;19.00;99.90
8858;DHT22;4465;50.904;4.696;2023-08-17T02:20:48;19.00;99.90
8858;DHT22;4465;50.904;4.696;2023-08-17T02:23:14;19.00;99.90
8858;DHT22;4465;50.904;4.696;2023-08-17T02:25:40;19.10;99.90
8858;DHT22;4465;50.904;4.696;2023-08-17T02:28:06;19.00;99.90
8858;DHT22;4465;50.904;4.696;2023-08-17T02:30:32;19.00;99.90
8858;DHT22;4465;50.904;4.696;2023-08-17T02:32:58;19.00;99.90
8858;DHT22;4465;50.904;4.696;2023-08-17T02:35:24;19.00;99.90
8858;DHT22;4465;50.904;4.696;2023-08-17T02:37:54;19.00;99.90
8858;DHT22;4465;50.904;4.696;2023-08-17T02:40:22;18.90;99.90
8858;DHT22;4465;50.904;4.696;2023-08-17T02:42:48;18.90;99.90
8858;DHT22;4465;50.904;4.696;2023-08-17T02:45:16;18.90;99.90
8858;DHT22;4465;50.904;4.696;2023-08-17T02:47:42;18.80;99.90
8858;DHT22;4465;50.904;4.696;2023-08-17T02:50:11;18.80;99.90
8858;DHT22;4465;50.904;4.696;2023-08-17T02:52:39;18.80;99.90
8858;DHT22;4465;50.904;4.696;2023-08-17T02:55:05;18.80;99.90
8858;DHT22;4465;50.904;4.696;2023-08-17T02:57:31;18.70;99.90
8858;DHT22;4465;50.904;4.696;2023-08-17T02:59:57;18.70;99.90
8858;DHT22;4465;50.904;4.696;2023-08-17T03:02:25;18.70;99.90
8858;DHT22;4465;50.904;4.696;2023-08-17T03:04:54;18.70;99.90
8858;DHT22;4465;50.904;4.696;2023-08-17T03:07:20;18.70;99.90
8858;DHT22;4465;50.904;4.696;2023-08-17T03:09:46;18.70;99.90
8858;DHT22;4465;50.904;4.696;2023-08-17T03:12:11;18.70;99.90
8858;DHT22;4465;50.904;4.696;2023-08-17T03:14:37;18.70;99.90
8858;DHT22;4465;50.904;4.696;2023-08-17T03:17:03;18.70;99.90
8858;DHT22;4465;50.904;4.696;2023-08-17T03:19:29;18.60;99.90
8858;DHT22;4465;50.904;4.696;2023-08-17T03:21:55;18.70;99.90
8858;DHT22;4465;50.904;4.696;2023-08-17T03:24:23;18.60;99.90
8858;DHT22;4465;50.904;4.696;2023-08-17T03:26:49;18.60;99.90
8858;DHT22;4465;50.904;4.696;2023-08-17T03:29:15;18.60;99.90
8858;DHT22;4465;50.904;4.696;2023-08-17T03:31:41;18.60;99.90
8858;DHT22;4465;50.904;4.696;2023-08-17T03:34:07;18.60;99.90
8858;DHT22;4465;50.904;4.696;2023-08-17T03:36:33;18.60;99.90
8858;DHT22;4465;50.904;4.696;2023-08-17T03:38:58;18.60;99.90
8858;DHT22;4465;50.904;4.696;2023-08-17T03:41:24;18.60;99.90
8858;DHT22;4465;50.904;4.696;2023-08-17T03:43:53;18.60;99.90
8858;DHT22;4465;50.904;4.696;2023-08-17T03:46:18;18.60;99.90
8858;DHT22;4465;50.904;4.696;2023-08-17T03:48:44;18.60;99.90
8858;DHT22;4465;50.904;4.696;2023-08-17T03:51:10;18.60;99.90
8858;DHT22;4465;50.904;4.696;2023-08-17T03:53:36;18.60;99.90
8858;DHT22;4465;50.904;4.696;2023-08-17T03:56:02;18.60;99.90
8858;DHT22;4465;50.904;4.696;2023-08-17T03:58:28;18.60;99.90
8858;DHT22;4465;50.904;4.696;2023-08-17T04:01:00;18.60;99.90
8858;DHT22;4465;50.904;4.696;2023-08-17T04:03:26;18.60;99.90
8858;DHT22;4465;50.904;4.696;2023-08-17T04:05:52;18.60;99.90
8858;DHT22;4465;50.904;4.696;2023-08-17T04:08:18;18.60;99.90
8858;DHT22;4465;50.904;4.696;2023-08-17T04:10:43;18.60;99.90
8858;DHT22;4465;50.904;4.696;2023-08-17T04:13:09;18.60;99.90
8858;DHT22;4465;50.904;4.696;2023-08-17T04:15:37;18.50;99.90
8858;DHT22;4465;50.904;4.696;2023-08-17T04:18:03;18.60;99.90
8858;DHT22;4465;50.904;4.696;2023-08-17T04:20:29;18.60;99.90
8858;DHT22;4465;50.904;4.696;2023-08-17T04:22:55;18.50;99.90
8858;DHT22;4465;50.904;4.696;2023-08-17T04:25:21;18.50;99.90
8858;DHT22;4465;50.904;4.696;2023-08-17T04:27:48;18.50;99.90
8858;DHT22;4465;50.904;4.696;2023-08-17T04:30:14;18.50;99.90
8858;DHT22;4465;50.904;4.696;2023-08-17T04:32:40;18.50;99.90
8858;DHT22;4465;50.904;4.696;2023-08-17T04:35:09;18.50;99.90
8858;DHT22;4465;50.904;4.696;2023-08-17T04:37:38;18.50;99.90
8858;DHT22;4465;50.904;4.696;2023-08-17T04:40:04;18.50;99.90
8858;DHT22;4465;50.904;4.696;2023-08-17T04:42:31;18.50;99.90
8858;DHT22;4465;50.904;4.696;2023-08-17T04:44:56;18.50;99.90
8858;DHT22;4465;50.904;4.696;2023-08-17T04:47:25;18.50;99.90
8858;DHT22;4465;50.904;4.696;2023-08-17T04:49:51;18.50;99.90
8858;DHT22;4465;50.904;4.696;2023-08-17T04:52:16;18.50;99.90
8858;DHT22;4465;50.904;4.696;2023-08-17T04:54:44;18.40;99.90
8858;DHT22;4465;50.904;4.696;2023-08-17T04:57:12;18.50;99.90
8858;DHT22;4465;50.904;4.696;2023-08-17T04:59:40;18.50;99.90
8858;DHT22;4465;50.904;4.696;2023-08-17T05:02:08;18.40;99.90
8858;DHT22;4465;50.904;4.696;2023-08-17T05:04:35;18.50;99.90
8858;DHT22;4465;50.904;4.696;2023-08-17T05:07:01;18.50;99.90
8858;DHT22;4465;50.904;4.696;2023-08-17T05:09:27;18.40;99.90
8858;DHT22;4465;50.904;4.696;2023-08-17T05:11:53;18.40;99.90
8858;DHT22;4465;50.904;4.696;2023-08-17T05:14:20;18.40;99.90
8858;DHT22;4465;50.904;4.696;2023-08-17T05:16:45;18.40;99.90
8858;DHT22;4465;50.904;4.696;2023-08-17T05:19:11;18.40;99.90
8858;DHT22;4465;50.904;4.696;2023-08-17T05:21:37;18.50;99.90
8858;DHT22;4465;50.904;4.696;2023-08-17T05:24:06;18.50;99.90
8858;DHT22;4465;50.904;4.696;2023-08-17T05:26:32;18.50;99.90
8858;DHT22;4465;50.904;4.696;2023-08-17T05:28:58;18.50;99.90
8858;DHT22;4465;50.904;4.696;2023-08-17T05:31:26;18.50;99.90
8858;DHT22;4465;50.904;4.696;2023-08-17T05:33:52;18.50;99.90
8858;DHT22;4465;50.904;4.696;2023-08-17T05:36:18;18.50;99.90
8858;DHT22;4465;50.904;4.696;2023-08-17T05:38:46;18.50;99.90
8858;DHT22;4465;50.904;4.696;2023-08-17T05:41:12;18.50;99.90
8858;DHT22;4465;50.904;4.696;2023-08-17T05:43:40;18.50;99.90
8858;DHT22;4465;50.904;4.696;2023-08-17T05:46:08;18.50;99.90
8858;DHT22;4465;50.904;4.696;2023-08-17T05:48:36;18.50;99.90
8858;DHT22;4465;50.904;4.696;2023-08-17T05:51:08;18.50;99.90
8858;DHT22;4465;50.904;4.696;2023-08-17T05:53:34;18.50;99.90
8858;DHT22;4465;50.904;4.696;2023-08-17T05:56:00;18.50;99.90
8858;DHT22;4465;50.904;4.696;2023-08-17T05:58:28;18.50;99.90
8858;DHT22;4465;50.904;4.696;2023-08-17T06:00:54;18.50;99.90
8858;DHT22;4465;50.904;4.696;2023-08-17T06:03:20;18.50;99.90
8858;DHT22;4465;50.904;4.696;2023-08-17T06:05:46;18.50;99.90
8858;DHT22;4465;50.904;4.696;2023-08-17T06:08:12;18.50;99.90
8858;DHT22;4465;50.904;4.696;2023-08-17T06:10:40;18.50;99.90
8858;DHT22;4465;50.904;4.696;2023-08-17T06:13:06;18.50;99.90
8858;DHT22;4465;50.904;4.696;2023-08-17T06:15:32;18.50;99.90
8858;DHT22;4465;50.904;4.696;2023-08-17T06:17:58;18.50;99.90
8858;DHT22;4465;50.904;4.696;2023-08-17T06:20:26;18.50;99.90
8858;DHT22;4465;50.904;4.696;2023-08-17T06:22:52;18.50;99.90
8858;DHT22;4465;50.904;4.696;2023-08-17T06:25:18;18.50;99.90
8858;DHT22;4465;50.904;4.696;2023-08-17T06:27:44;18.50;99.90
8858;DHT22;4465;50.904;4.696;2023-08-17T06:30:11;18.50;99.90
8858;DHT22;4465;50.904;4.696;2023-08-17T06:32:40;18.50;99.90
8858;DHT22;4465;50.904;4.696;2023-08-17T06:35:08;18.50;99.90
8858;DHT22;4465;50.904;4.696;2023-08-17T06:37:34;18.50;99.90
8858;DHT22;4465;50.904;4.696;2023-08-17T06:40:00;18.50;99.90
8858;DHT22;4465;50.904;4.696;2023-08-17T06:42:26;18.50;99.90
8858;DHT22;4465;50.904;4.696;2023-08-17T06:44:52;18.50;99.90
8858;DHT22;4465;50.904;4.696;2023-08-17T06:47:17;18.50;99.90
8858;DHT22;4465;50.904;4.696;2023-08-17T06:49:43;18.50;99.90
8858;DHT22;4465;50.904;4.696;2023-08-17T06:52:14;18.50;99.90
8858;DHT22;4465;50.904;4.696;2023-08-17T06:54:40;18.50;99.90
8858;DHT22;4465;50.904;4.696;2023-08-17T06:57:08;18.50;99.90
8858;DHT22;4465;50.904;4.696;2023-08-17T06:59:34;18.40;99.90
8858;DHT22;4465;50.904;4.696;2023-08-17T07:02:02;18.40;99.90
8858;DHT22;4465;50.904;4.696;2023-08-17T07:04:33;18.40;99.90
8858;DHT22;4465;50.904;4.696;2023-08-17T07:06:59;18.40;99.90
8858;DHT22;4465;50.904;4.696;2023-08-17T07:09:27;18.40;99.90
8858;DHT22;4465;50.904;4.696;2023-08-17T07:11:55;18.40;99.90
8858;DHT22;4465;50.904;4.696;2023-08-17T07:14:23;18.40;99.90
8858;DHT22;4465;50.904;4.696;2023-08-17T07:16:50;18.40;99.90
8858;DHT22;4465;50.904;4.696;2023-08-17T07:19:16;18.30;99.90
8858;DHT22;4465;50.904;4.696;2023-08-17T07:21:45;18.30;99.90
8858;DHT22;4465;50.904;4.696;2023-08-17T07:24:16;18.30;99.90
8858;DHT22;4465;50.904;4.696;2023-08-17T07:26:44;18.30;99.90
8858;DHT22;4465;50.904;4.696;2023-08-17T07:29:10;18.30;99.90
8858;DHT22;4465;50.904;4.696;2023-08-17T07:31:40;18.40;99.90
8858;DHT22;4465;50.904;4.696;2023-08-17T07:34:09;18.40;99.90
8858;DHT22;4465;50.904;4.696;2023-08-17T07:36:35;18.40;99.90
8858;DHT22;4465;50.904;4.696;2023-08-17T07:39:01;18.50;99.90
8858;DHT22;4465;50.904;4.696;2023-08-17T07:41:27;18.50;99.90
8858;DHT22;4465;50.904;4.696;2023-08-17T07:43:53;18.50;99.90
8858;DHT22;4465;50.904;4.696;2023-08-17T07:46:19;18.50;99.90
8858;DHT22;4465;50.904;4.696;2023-08-17T07:48:45;18.50;99.90
8858;DHT22;4465;50.904;4.696;2023-08-17T07:51:11;18.60;99.90
8858;DHT22;4465;50.904;4.696;2023-08-17T07:53:37;18.60;99.90
8858;DHT22;4465;50.904;4.696;2023-08-17T07:56:05;18.70;99.90
8858;DHT22;4465;50.904;4.696;2023-08-17T07:58:31;18.70;99.90
8858;DHT22;4465;50.904;4.696;2023-08-17T08:00:56;18.70;99.90
8858;DHT22;4465;50.904;4.696;2023-08-17T08:03:22;18.70;99.90
8858;DHT22;4465;50.904;4.696;2023-08-17T08:05:51;18.70;99.90
8858;DHT22;4465;50.904;4.696;2023-08-17T08:08:17;18.70;99.90
8858;DHT22;4465;50.904;4.696;2023-08-17T08:10:43;18.70;99.90
8858;DHT22;4465;50.904;4.696;2023-08-17T08:13:09;18.70;99.90
8858;DHT22;4465;50.904;4.696;2023-08-17T08:15:35;18.80;99.90
8858;DHT22;4465;50.904;4.696;2023-08-17T08:18:04;18.80;99.90
8858;DHT22;4465;50.904;4.696;2023-08-17T08:20:32;18.80;99.90
8858;DHT22;4465;50.904;4.696;2023-08-17T08:22:58;18.90;99.90
8858;DHT22;4465;50.904;4.696;2023-08-17T08:25:24;18.90;99.90
8858;DHT22;4465;50.904;4.696;2023-08-17T08:27:50;18.90;99.90
8858;DHT22;4465;50.904;4.696;2023-08-17T08:30:16;18.90;99.90
8858;DHT22;4465;50.904;4.696;2023-08-17T08:32:46;19.00;99.90
8858;DHT22;4465;50.904;4.696;2023-08-17T08:35:12;19.00;99.90
8858;DHT22;4465;50.904;4.696;2023-08-17T08:37:38;19.10;99.90
8858;DHT22;4465;50.904;4.696;2023-08-17T08:40:04;19.20;99.90
8858;DHT22;4465;50.904;4.696;2023-08-17T08:42:35;19.20;99.90
8858;DHT22;4465;50.904;4.696;2023-08-17T08:45:01;19.30;99.90
8858;DHT22;4465;50.904;4.696;2023-08-17T08:47:28;19.30;99.90
8858;DHT22;4465;50.904;4.696;2023-08-17T08:50:01;19.30;99.90
8858;DHT22;4465;50.904;4.696;2023-08-17T08:52:35;19.30;99.90
8858;DHT22;4465;50.904;4.696;2023-08-17T08:55:17;19.30;99.90
8858;DHT22;4465;50.904;4.696;2023-08-17T08:57:43;19.30;99.90
8858;DHT22;4465;50.904;4.696;2023-08-17T09:00:11;19.40;99.90
8858;DHT22;4465;50.904;4.696;2023-08-17T09:02:41;19.40;99.90
8858;DHT22;4465;50.904;4.696;2023-08-17T09:05:08;19.40;99.90
8858;DHT22;4465;50.904;4.696;2023-08-17T09:07:39;19.50;99.90
8858;DHT22;4465;50.904;4.696;2023-08-17T09:10:06;19.50;99.90
8858;DHT22;4465;50.904;4.696;2023-08-17T09:12:33;19.50;99.90
8858;DHT22;4465;50.904;4.696;2023-08-17T09:14:59;19.60;99.90
8858;DHT22;4465;50.904;4.696;2023-08-17T09:17:27;19.60;99.90
8858;DHT22;4465;50.904;4.696;2023-08-17T09:19:55;19.60;99.90
8858;DHT22;4465;50.904;4.696;2023-08-17T09:22:24;19.60;99.90
8858;DHT22;4465;50.904;4.696;2023-08-17T09:24:51;19.60;99.90
8858;DHT22;4465;50.904;4.696;2023-08-17T09:27:20;19.70;99.90
8858;DHT22;4465;50.904;4.696;2023-08-17T09:29:48;19.70;99.90
8858;DHT22;4465;50.904;4.696;2023-08-17T09:32:14;19.70;99.90
8858;DHT22;4465;50.904;4.696;2023-08-17T09:34:43;19.70;99.90
8858;DHT22;4465;50.904;4.696;2023-08-17T09:37:12;19.80;99.90
8858;DHT22;4465;50.904;4.696;2023-08-17T09:39:38;19.90;99.90
8858;DHT22;4465;50.904;4.696;2023-08-17T09:42:05;19.90;99.90
8858;DHT22;4465;50.904;4.696;2023-08-17T09:44:33;19.90;99.90
8858;DHT22;4465;50.904;4.696;2023-08-17T09:46:59;20.00;99.90
8858;DHT22;4465;50.904;4.696;2023-08-17T09:49:25;20.00;99.90
8858;DHT22;4465;50.904;4.696;2023-08-17T09:51:53;20.00;99.90
8858;DHT22;4465;50.904;4.696;2023-08-17T09:54:23;20.00;99.90
8858;DHT22;4465;50.904;4.696;2023-08-17T09:56:52;20.10;99.90
8858;DHT22;4465;50.904;4.696;2023-08-17T09:59:19;20.10;99.90
8858;DHT22;4465;50.904;4.696;2023-08-17T10:01:50;20.20;99.90
8858;DHT22;4465;50.904;4.696;2023-08-17T10:04:21;20.20;99.90
8858;DHT22;4465;50.904;4.696;2023-08-17T10:06:52;20.20;99.90
8858;DHT22;4465;50.904;4.696;2023-08-17T10:09:25;20.30;99.90
8858;DHT22;4465;50.904;4.696;2023-08-17T10:11:53;20.30;99.90
8858;DHT22;4465;50.904;4.696;2023-08-17T10:14:28;20.40;99.90
8858;DHT22;4465;50.904;4.696;2023-08-17T10:17:07;20.50;99.90
8858;DHT22;4465;50.904;4.696;2023-08-17T10:19:54;20.50;99.90
8858;DHT22;4465;50.904;4.696;2023-08-17T10:22:36;20.50;99.90
8858;DHT22;4465;50.904;4.696;2023-08-17T10:25:05;20.50;99.90
8858;DHT22;4465;50.904;4.696;2023-08-17T10:27:34;20.60;99.90
8858;DHT22;4465;50.904;4.696;2023-08-17T10:30:01;20.60;99.90
8858;DHT22;4465;50.904;4.696;2023-08-17T10:32:27;20.60;99.90
8858;DHT22;4465;50.904;4.696;2023-08-17T10:34:54;20.70;99.90
8858;DHT22;4465;50.904;4.696;2023-08-17T10:37:21;20.70;99.90
8858;DHT22;4465;50.904;4.696;2023-08-17T10:39:50;20.70;99.90
8858;DHT22;4465;50.904;4.696;2023-08-17T10:42:35;20.70;99.90
8858;DHT22;4465;50.904;4.696;2023-08-17T10:45:33;20.70;99.90
8858;DHT22;4465;50.904;4.696;2023-08-17T10:50:37;20.80;99.90
8858;DHT22;4465;50.904;4.696;2023-08-17T10:53:10;20.70;99.90
8858;DHT22;4465;50.904;4.696;2023-08-17T10:55:41;20.70;99.90
8858;DHT22;4465;50.904;4.696;2023-08-17T10:58:08;20.70;99.90
8858;DHT22;4465;50.904;4.696;2023-08-17T11:00:37;20.80;99.90
8858;DHT22;4465;50.904;4.696;2023-08-17T11:03:07;20.80;99.90
8858;DHT22;4465;50.904;4.696;2023-08-17T11:05:50;20.80;99.90
8858;DHT22;4465;50.904;4.696;2023-08-17T11:08:50;20.80;99.90
8858;DHT22;4465;50.904;4.696;2023-08-17T11:11:16;20.80;99.90
8858;DHT22;4465;50.904;4.696;2023-08-17T11:13:45;20.80;99.90
8858;DHT22;4465;50.904;4.696;2023-08-17T11:16:13;20.70;99.90
8858;DHT22;4465;50.904;4.696;2023-08-17T11:18:43;20.80;99.90
8858;DHT22;4465;50.904;4.696;2023-08-17T11:21:10;20.80;99.90
8858;DHT22;4465;50.904;4.696;2023-08-17T11:23:39;20.80;99.90
8858;DHT22;4465;50.904;4.696;2023-08-17T11:26:07;20.80;99.90
8858;DHT22;4465;50.904;4.696;2023-08-17T11:28:35;20.80;99.90
8858;DHT22;4465;50.904;4.696;2023-08-17T11:31:08;20.90;99.90
8858;DHT22;4465;50.904;4.696;2023-08-17T11:33:36;20.90;99.90
8858;DHT22;4465;50.904;4.696;2023-08-17T11:36:05;20.90;99.90
8858;DHT22;4465;50.904;4.696;2023-08-17T11:38:36;20.90;99.90
8858;DHT22;4465;50.904;4.696;2023-08-17T11:41:06;20.90;99.90
8858;DHT22;4465;50.904;4.696;2023-08-17T11:43:34;20.90;99.90
8858;DHT22;4465;50.904;4.696;2023-08-17T11:46:01;20.90;99.90
8858;DHT22;4465;50.904;4.696;2023-08-17T11:48:28;20.90;99.90
8858;DHT22;4465;50.904;4.696;2023-08-17T11:50:54;20.90;99.90
8858;DHT22;4465;50.904;4.696;2023-08-17T11:53:24;20.90;99.90
8858;DHT22;4465;50.904;4.696;2023-08-17T11:55:50;20.90;99.90
8858;DHT22;4465;50.904;4.696;2023-08-17T11:58:16;20.90;99.90
8858;DHT22;4465;50.904;4.696;2023-08-17T12:00:44;20.90;99.90
8858;DHT22;4465;50.904;4.696;2023-08-17T12:03:14;21.00;99.90
8858;DHT22;4465;50.904;4.696;2023-08-17T12:05:41;21.00;99.90
8858;DHT22;4465;50.904;4.696;2023-08-17T12:08:08;21.10;99.90
8858;DHT22;4465;50.904;4.696;2023-08-17T12:10:34;21.10;99.90
8858;DHT22;4465;50.904;4.696;2023-08-17T12:13:02;21.10;99.90
8858;DHT22;4465;50.904;4.696;2023-08-17T12:15:35;21.10;99.90
8858;DHT22;4465;50.904;4.696;2023-08-17T12:18:03;21.10;99.90
8858;DHT22;4465;50.904;4.696;2023-08-17T12:20:31;21.10;99.90
8858;DHT22;4465;50.904;4.696;2023-08-17T12:22:59;21.10;99.90
8858;DHT22;4465;50.904;4.696;2023-08-17T12:25:26;21.10;99.90
8858;DHT22;4465;50.904;4.696;2023-08-17T12:27:51;21.20;99.90
8858;DHT22;4465;50.904;4.696;2023-08-17T12:30:29;21.20;99.90
8858;DHT22;4465;50.904;4.696;2023-08-17T12:32:57;21.20;99.90
8858;DHT22;4465;50.904;4.696;2023-08-17T12:35:23;21.20;99.90
8858;DHT22;4465;50.904;4.696;2023-08-17T12:37:51;21.20;99.90
8858;DHT22;4465;50.904;4.696;2023-08-17T12:40:17;21.20;99.90
8858;DHT22;4465;50.904;4.696;2023-08-17T12:42:43;21.20;99.90
8858;DHT22;4465;50.904;4.696;2023-08-17T12:45:11;21.20;99.90
8858;DHT22;4465;50.904;4.696;2023-08-17T12:47:37;21.20;99.90
8858;DHT22;4465;50.904;4.696;2023-08-17T12:50:04;21.20;99.90
8858;DHT22;4465;50.904;4.696;2023-08-17T12:52:30;21.20;99.90
8858;DHT22;4465;50.904;4.696;2023-08-17T12:54:56;21.10;99.90
8858;DHT22;4465;50.904;4.696;2023-08-17T12:57:22;21.10;99.90
8858;DHT22;4465;50.904;4.696;2023-08-17T12:59:48;21.10;99.90
8858;DHT22;4465;50.904;4.696;2023-08-17T13:02:14;21.10;99.90
8858;DHT22;4465;50.904;4.696;2023-08-17T13:04:42;21.20;99.90
8858;DHT22;4465;50.904;4.696;2023-08-17T13:07:08;21.20;99.90
8858;DHT22;4465;50.904;4.696;2023-08-17T13:09:34;21.10;99.90
8858;DHT22;4465;50.904;4.696;2023-08-17T13:12:03;21.10;99.90
8858;DHT22;4465;50.904;4.696;2023-08-17T13:14:29;21.20;99.90
8858;DHT22;4465;50.904;4.696;2023-08-17T13:16:55;21.20;99.90
8858;DHT22;4465;50.904;4.696;2023-08-17T13:19:23;21.20;99.90
8858;DHT22;4465;50.904;4.696;2023-08-17T13:21:49;21.20;99.90
8858;DHT22;4465;50.904;4.696;2023-08-17T13:24:15;21.20;99.90
8858;DHT22;4465;50.904;4.696;2023-08-17T13:26:41;21.20;99.90
8858;DHT22;4465;50.904;4.696;2023-08-17T13:29:06;21.10;99.90
8858;DHT22;4465;50.904;4.696;2023-08-17T13:31:32;21.10;99.90
8858;DHT22;4465;50.904;4.696;2023-08-17T13:34:00;21.10;99.90
8858;DHT22;4465;50.904;4.696;2023-08-17T13:36:26;21.10;99.90
8858;DHT22;4465;50.904;4.696;2023-08-17T13:38:52;21.10;99.90
8858;DHT22;4465;50.904;4.696;2023-08-17T13:41:19;21.10;99.90
8858;DHT22;4465;50.904;4.696;2023-08-17T13:43:47;21.10;99.90
8858;DHT22;4465;50.904;4.696;2023-08-17T13:46:13;21.10;99.90
8858;DHT22;4465;50.904;4.696;2023-08-17T13:48:39;21.10;99.90
8858;DHT22;4465;50.904;4.696;2023-08-17T13:51:06;21.10;99.90
8858;DHT22;4465;50.904;4.696;2023-08-17T13:53:31;21.20;99.90
8858;DHT22;4465;50.904;4.696;2023-08-17T13:56:00;21.20;99.90
8858;DHT22;4465;50.904;4.696;2023-08-17T13:58:26;21.20;99.90
8858;DHT22;4465;50.904;4.696;2023-08-17T14:00:54;21.30;99.90
8858;DHT22;4465;50.904;4.696;2023-08-17T14:03:19;21.30;99.90
8858;DHT22;4465;50.904;4.696;2023-08-17T14:05:48;21.30;99.90
8858;DHT22;4465;50.904;4.696;2023-08-17T14:08:14;21.30;99.90
8858;DHT22;4465;50.904;4.696;2023-08-17T14:10:40;21.30;99.90
8858;DHT22;4465;50.904;4.696;2023-08-17T14:13:08;21.40;99.90
8858;DHT22;4465;50.904;4.696;2023-08-17T14:15:34;21.40;99.90
8858;DHT22;4465;50.904;4.696;2023-08-17T14:18:00;21.50;99.90
8858;DHT22;4465;50.904;4.696;2023-08-17T14:20:29;21.50;99.90
8858;DHT22;4465;50.904;4.696;2023-08-17T14:22:57;21.50;99.90
8858;DHT22;4465;50.904;4.696;2023-08-17T14:25:23;21.40;99.90
8858;DHT22;4465;50.904;4.696;2023-08-17T14:27:49;21.50;99.90
8858;DHT22;4465;50.904;4.696;2023-08-17T14:30:15;21.50;99.90
8858;DHT22;4465;50.904;4.696;2023-08-17T14:32:43;21.50;99.90
8858;DHT22;4465;50.904;4.696;2023-08-17T14:35:11;21.50;99.90
8858;DHT22;4465;50.904;4.696;2023-08-17T14:37:39;21.50;99.90
8858;DHT22;4465;50.904;4.696;2023-08-17T14:40:08;21.60;99.90
8858;DHT22;4465;50.904;4.696;2023-08-17T14:42:37;21.60;99.90
8858;DHT22;4465;50.904;4.696;2023-08-17T14:45:04;21.70;99.90
8858;DHT22;4465;50.904;4.696;2023-08-17T14:47:32;21.70;99.90
8858;DHT22;4465;50.904;4.696;2023-08-17T14:49:58;21.70;99.90
8858;DHT22;4465;50.904;4.696;2023-08-17T14:52:24;21.70;99.90
8858;DHT22;4465;50.904;4.696;2023-08-17T14:54:51;21.60;99.90
8858;DHT22;4465;50.904;4.696;2023-08-17T14:57:17;21.70;99.90
8858;DHT22;4465;50.904;4.696;2023-08-17T14:59:45;21.60;99.90
8858;DHT22;4465;50.904;4.696;2023-08-17T15:02:14;21.60;99.90
8858;DHT22;4465;50.904;4.696;2023-08-17T15:04:42;21.60;99.90
8858;DHT22;4465;50.904;4.696;2023-08-17T15:07:08;21.70;99.90
8858;DHT22;4465;50.904;4.696;2023-08-17T15:09:37;21.70;99.90
8858;DHT22;4465;50.904;4.696;2023-08-17T15:12:06;21.70;99.90
8858;DHT22;4465;50.904;4.696;2023-08-17T15:14:32;21.70;99.90
8858;DHT22;4465;50.904;4.696;2023-08-17T15:17:01;21.70;99.90
8858;DHT22;4465;50.904;4.696;2023-08-17T15:19:27;21.80;99.90
8858;DHT22;4465;50.904;4.696;2023-08-17T15:21:55;21.80;99.90
8858;DHT22;4465;50.904;4.696;2023-08-17T15:24:21;21.70;99.90
8858;DHT22;4465;50.904;4.696;2023-08-17T15:26:47;21.70;99.90
8858;DHT22;4465;50.904;4.696;2023-08-17T15:29:15;21.80;99.90
8858;DHT22;4465;50.904;4.696;2023-08-17T15:31:44;21.80;99.90
8858;DHT22;4465;50.904;4.696;2023-08-17T15:34:09;21.80;99.90
8858;DHT22;4465;50.904;4.696;2023-08-17T15:36:35;21.80;99.90
8858;DHT22;4465;50.904;4.696;2023-08-17T15:39:04;21.90;99.90
8858;DHT22;4465;50.904;4.696;2023-08-17T15:41:32;21.80;99.90
8858;DHT22;4465;50.904;4.696;2023-08-17T15:43:58;21.90;99.90
8858;DHT22;4465;50.904;4.696;2023-08-17T15:46:23;21.90;99.90
8858;DHT22;4465;50.904;4.696;2023-08-17T15:48:49;21.90;99.90
8858;DHT22;4465;50.904;4.696;2023-08-17T15:51:17;21.90;99.90
8858;DHT22;4465;50.904;4.696;2023-08-17T15:53:46;21.90;99.90
8858;DHT22;4465;50.904;4.696;2023-08-17T15:56:12;21.90;99.90
8858;DHT22;4465;50.904;4.696;2023-08-17T15:58:40;21.90;99.90
8858;DHT22;4465;50.904;4.696;2023-08-17T16:01:08;21.90;99.90
8858;DHT22;4465;50.904;4.696;2023-08-17T16:03:35;21.90;99.90
8858;DHT22;4465;50.904;4.696;2023-08-17T16:06:02;21.90;99.90
8858;DHT22;4465;50.904;4.696;2023-08-17T16:08:30;21.80;99.90
8858;DHT22;4465;50.904;4.696;2023-08-17T16:10:56;21.80;99.90